Wetterstation Vordersexau
Wetterdaten: Januar 2015
Datum Temp. A. Feuchte A. Luftdruck Regen Wind Richtung Taupunkt Windchill Windben
01.01.2015 -3,5 C 87 % 1006,8 hPa 0,0 l/m 0,0 km/h O -5,4 C -3,5 C 0,0 km/h
02.01.2015 -0,8 C 87 % 1005,0 hPa 0,6 l/m 1,7 km/h O -2,7 C -1,2 C 1,1 km/h
03.01.2015 4,9 C 85 % 997,4 hPa 1,0 l/m 7,6 km/h N-NO 2,6 C 2,5 C 7,4 km/h
04.01.2015 4,0 C 81 % 1003,4 hPa 1,7 l/m 0,0 km/h O-SO 1,0 C 4,0 C 0,0 km/h
05.01.2015 1,1 C 79 % 1003,6 hPa 0,0 l/m 0,2 km/h O-SO -2,4 C 1,1 C 0,1 km/h
06.01.2015 0,3 C 80 % 996,0 hPa 0,0 l/m 0,1 km/h O-SO -2,8 C 0,3 C 0,1 km/h
07.01.2015 1,4 C 87 % 1002,5 hPa 0,8 l/m 0,0 km/h O-SO -0,5 C 1,4 C 0,0 km/h
08.01.2015 8,1 C 82 % 1014,3 hPa 1,5 l/m 12,2 km/h SW 5,2 C 5,1 C 8,0 km/h
09.01.2015 8,8 C 82 % 1027,9 hPa 0,7 l/m 34,2 km/h SW 5,9 C -0,4 C 16,7 km/h
10.01.2015 13,0 C 80 % 1020,2 hPa 0,0 l/m 30,6 km/h W-SW 9,6 C 5,3 C 16,3 km/h
11.01.2015 5,1 C 81 % 1022,6 hPa 14,0 l/m 12,3 km/h W 2,1 C 0,8 C 6,8 km/h
12.01.2015 6,0 C 65 % 1024,3 hPa 0,0 l/m 14,7 km/h S-SW -0,2 C 0,9 C 8,2 km/h
13.01.2015 9,2 C 54 % 1014,2 hPa 0,0 l/m 8,0 km/h N-NO -0,1 C 7,3 C 4,5 km/h
14.01.2015 6,2 C 82 % 1015,0 hPa 10,9 l/m 11,4 km/h N-NO 3,4 C 2,7 C 6,3 km/h
15.01.2015 7,8 C 72 % 1008,2 hPa 0,0 l/m 1,6 km/h N-NO 2,9 C 7,4 C 0,9 km/h
16.01.2015 6,5 C 81 % 1005,1 hPa 24,9 l/m 5,6 km/h W 3,4 C 5,0 C 3,1 km/h
17.01.2015 3,2 C 84 % 1013,0 hPa 17,1 l/m 0,1 km/h SO 0,8 C 3,2 C 0,0 km/h
18.01.2015 1,6 C 81 % 1013,7 hPa 0,0 l/m 0,3 km/h NW -1,5 C 1,5 C 0,2 km/h
19.01.2015 0,2 C 87 % 1008,8 hPa 3,9 l/m 0,0 km/h NW -1,7 C 0,2 C 0,0 km/h
20.01.2015 1,1 C 86 % 1008,7 hPa 5,4 l/m 1,4 km/h W -1,0 C 0,5 C 0,8 km/h
21.01.2015 1,2 C 87 % 1006,8 hPa 0,0 l/m 0,2 km/h W-NW -0,8 C 1,2 C 0,1 km/h
22.01.2015 0,2 C 87 % 1010,5 hPa 0,0 l/m 0,0 km/h N-NW -1,8 C 0,2 C 0,0 km/h
23.01.2015 1,1 C 86 % 1019,3 hPa 0,8 l/m 0,0 km/h W -0,9 C 1,1 C 0,0 km/h
24.01.2015 1,4 C 86 % 1020,4 hPa 0,0 l/m 3,0 km/h W -0,7 C 0,4 C 1,6 km/h
25.01.2015 1,5 C 85 % 1026,9 hPa 3,9 l/m 0,0 km/h S-SW -0,8 C 1,5 C 0,0 km/h
26.01.2015 1,0 C 87 % 1022,8 hPa 13,2 l/m 2,1 km/h W-NW -1,0 C 0,1 C 1,2 km/h
27.01.2015 2,4 C 85 % 1021,4 hPa 1,6 l/m 0,1 km/h W 0,1 C 2,4 C 0,0 km/h
28.01.2015 3,2 C 81 % 1013,1 hPa 0,0 l/m 13,8 km/h W 0,2 C -1,9 C 7,7 km/h
29.01.2015 4,1 C 83 % 991,3 hPa 0,8 l/m 14,8 km/h W-SW 1,4 C -1,6 C 8,2 km/h
30.01.2015 2,2 C 84 % 978,6 hPa 2,3 l/m 15,1 km/h S-SW -0,2 C -3,8 C 8,4 km/h
31.01.2015 2,7 C 81 % 983,4 hPa 0,8 l/m 6,8 km/h W-SW -0,2 C 0,7 C 3,8 km/h
Min-Datum 01.01.15 13.01.15 30.01.15 19 Tage 01.01.15 - 01.01.15 20.01.15 01.01.15
Min-Zeit 21:53 11:53 00:53 - 00:53 - 21:53 00:53 00:53
Minimum -6,6 C 33 % 973,9 hPa - 0,0 km/h - -8,2 C -11,4 C 0,0 km/h
Max-Datum 13.01.15 01.01.15 09.01.15 16.01.15 09.01.15 - 10.01.15 13.01.15 10.01.15
Max-Zeit 15:53 00:53 00:53 14:53 23:53 - 13:53 15:53 10:53
Maximum 18,6 C 88 % 1032,6 hPa 24,9 l/m 86,0 km/h
SW
- 11,3 C 17,2 C 31,3 km/h
W-SW
Durchschnitt 3,4 C 82 % 1009,8 hPa #105,8 l/m 6,4 km/h W 0,4 C 1,4 C 3,6 km/h

Durchschnitt Minimum Temp.0,3 C
Durchschnitt Maximum Temp.7,8 C
www.sexauwetter.de